createdAt,value
2019-04-30T00:00:30.378Z,0.00
2019-04-30T00:01:28.975Z,0.00
2019-04-30T00:02:34.828Z,0.00
2019-04-30T00:03:29.962Z,0.00
2019-04-30T00:04:29.862Z,0.00
2019-04-30T00:05:29.930Z,0.00
2019-04-30T00:06:34.519Z,0.00
2019-04-30T00:07:29.912Z,0.00
2019-04-30T00:08:30.080Z,0.00
2019-04-30T00:09:29.896Z,0.00
2019-04-30T00:10:35.797Z,0.00
2019-04-30T00:11:29.870Z,0.00
2019-04-30T00:12:30.929Z,0.00
2019-04-30T00:13:29.846Z,0.00
2019-04-30T00:14:36.841Z,0.00
2019-04-30T00:15:29.830Z,0.00
2019-04-30T00:16:31.104Z,0.00
2019-04-30T00:17:29.803Z,0.00
2019-04-30T00:18:30.693Z,0.00
2019-04-30T00:19:29.782Z,0.00
2019-04-30T00:20:30.013Z,0.00
2019-04-30T00:21:29.763Z,0.00
2019-04-30T00:22:33.978Z,0.00
2019-04-30T00:23:30.923Z,0.00
2019-04-30T00:24:28.732Z,0.00
2019-04-30T00:25:28.750Z,0.00
2019-04-30T00:26:28.708Z,0.00
2019-04-30T00:27:30.313Z,0.00
2019-04-30T00:28:28.690Z,0.00
2019-04-30T00:29:31.041Z,0.00
2019-04-30T00:30:28.664Z,0.00
2019-04-30T00:31:28.659Z,0.00
2019-04-30T00:32:28.644Z,0.00
2019-04-30T00:33:28.636Z,0.00
2019-04-30T00:34:31.024Z,0.00
2019-04-30T00:35:29.611Z,0.00
2019-04-30T00:36:34.231Z,0.00
2019-04-30T00:37:29.590Z,0.00
2019-04-30T00:38:29.594Z,0.00
2019-04-30T00:39:28.568Z,0.00
2019-04-30T00:40:30.118Z,0.00
2019-04-30T00:41:30.266Z,0.00
2019-04-30T00:42:28.936Z,0.00
2019-04-30T00:43:28.529Z,0.00
2019-04-30T00:44:28.593Z,0.00
2019-04-30T00:45:28.505Z,0.00
2019-04-30T00:46:29.452Z,0.00
2019-04-30T00:47:28.486Z,0.00
2019-04-30T00:48:31.200Z,0.00
2019-04-30T00:49:28.466Z,0.00
2019-04-30T00:50:29.028Z,0.00
2019-04-30T00:51:28.447Z,0.00
2019-04-30T00:52:29.438Z,0.00
2019-04-30T00:53:29.424Z,0.00
2019-04-30T00:54:30.874Z,0.00
2019-04-30T00:55:28.399Z,0.00
2019-04-30T00:56:28.456Z,0.00
2019-04-30T00:57:28.376Z,0.00
2019-04-30T00:58:30.238Z,0.00
2019-04-30T00:59:28.356Z,0.00
2019-04-30T01:00:29.730Z,0.00
2019-04-30T01:01:28.335Z,0.00
2019-04-30T01:02:32.105Z,0.00
2019-04-30T01:03:28.317Z,0.00
2019-04-30T01:04:28.315Z,0.00
2019-04-30T01:05:28.292Z,0.00
2019-04-30T01:06:28.761Z,0.00
2019-04-30T01:07:28.272Z,0.00
2019-04-30T01:08:28.753Z,0.00
2019-04-30T01:09:28.255Z,0.00
2019-04-30T01:10:28.480Z,0.00
2019-04-30T01:11:28.226Z,0.00
2019-04-30T01:12:33.455Z,0.00
2019-04-30T01:13:29.204Z,0.00
2019-04-30T01:14:31.871Z,0.00
2019-04-30T01:15:29.173Z,0.00
2019-04-30T01:16:32.947Z,0.00
2019-04-30T01:17:29.968Z,0.00
2019-04-30T01:18:31.923Z,0.00
2019-04-30T01:19:30.646Z,0.00
2019-04-30T01:20:31.559Z,0.00
2019-04-30T01:21:28.554Z,0.00
2019-04-30T01:22:32.626Z,0.00
2019-04-30T01:23:29.636Z,0.00
2019-04-30T01:24:31.423Z,0.00
2019-04-30T01:25:28.815Z,0.00
2019-04-30T01:26:31.040Z,0.00
2019-04-30T01:27:28.412Z,0.00
2019-04-30T01:28:28.438Z,0.00
2019-04-30T01:29:31.122Z,0.00
2019-04-30T01:30:29.028Z,0.00
2019-04-30T01:31:33.018Z,0.00
2019-04-30T01:32:29.001Z,0.00
2019-04-30T01:33:34.386Z,0.00
2019-04-30T01:34:29.436Z,0.00
2019-04-30T01:35:32.454Z,0.00
2019-04-30T01:36:29.376Z,0.00
2019-04-30T01:37:29.594Z,0.00
2019-04-30T01:38:28.724Z,0.00
2019-04-30T01:39:31.567Z,0.00
2019-04-30T01:40:28.557Z,0.00
2019-04-30T01:41:31.296Z,0.00
2019-04-30T01:42:28.421Z,0.00
2019-04-30T01:43:31.569Z,0.00
2019-04-30T01:44:29.497Z,0.00
2019-04-30T01:45:31.493Z,0.00
2019-04-30T01:46:29.165Z,0.00
2019-04-30T01:47:34.816Z,0.00
2019-04-30T01:48:29.263Z,0.00
2019-04-30T01:49:30.074Z,0.00
2019-04-30T01:50:29.262Z,0.00
2019-04-30T01:51:28.576Z,0.00
2019-04-30T01:52:29.214Z,0.00
2019-04-30T01:53:28.780Z,0.00
2019-04-30T01:54:29.149Z,0.00
2019-04-30T01:55:29.366Z,0.00
2019-04-30T01:56:28.934Z,0.00
2019-04-30T01:57:29.265Z,0.00
2019-04-30T01:58:29.983Z,0.00
2019-04-30T01:59:29.134Z,0.00
2019-04-30T02:00:29.317Z,0.00
2019-04-30T02:01:28.604Z,0.00
2019-04-30T02:02:28.627Z,0.00
2019-04-30T02:03:29.193Z,0.00
2019-04-30T02:04:29.010Z,0.00
2019-04-30T02:05:28.780Z,0.00
2019-04-30T02:06:29.328Z,0.00
2019-04-30T02:07:28.734Z,0.00
2019-04-30T02:08:29.405Z,0.00
2019-04-30T02:09:28.651Z,0.00
2019-04-30T02:10:28.521Z,0.00
2019-04-30T02:11:28.840Z,0.00
2019-04-30T02:12:29.549Z,0.00
2019-04-30T02:13:31.186Z,0.00
2019-04-30T02:14:28.748Z,0.00
2019-04-30T02:15:29.155Z,0.00
2019-04-30T02:16:28.959Z,0.00
2019-04-30T02:17:29.213Z,0.00
2019-04-30T02:18:29.444Z,0.00
2019-04-30T02:19:28.774Z,0.00
2019-04-30T02:20:28.706Z,0.00
2019-04-30T02:21:27.482Z,0.00
2019-04-30T02:22:28.824Z,0.00
2019-04-30T02:23:29.531Z,0.00
2019-04-30T02:24:28.855Z,0.00
2019-04-30T02:25:29.361Z,0.00
2019-04-30T02:26:28.628Z,0.00
2019-04-30T02:27:29.469Z,0.00
2019-04-30T02:28:28.996Z,0.00
2019-04-30T02:29:27.395Z,0.00
2019-04-30T02:30:30.496Z,0.00
2019-04-30T02:31:27.382Z,0.00
2019-04-30T02:32:30.202Z,0.00
2019-04-30T02:33:30.346Z,0.00
2019-04-30T02:34:30.089Z,0.00
2019-04-30T02:35:28.830Z,0.00
2019-04-30T02:36:29.850Z,0.00
2019-04-30T02:37:29.972Z,0.00
2019-04-30T02:38:29.862Z,0.00
2019-04-30T02:39:30.128Z,0.00
2019-04-30T02:40:30.019Z,0.00
2019-04-30T02:41:29.293Z,0.00
2019-04-30T02:42:29.604Z,0.00
2019-04-30T02:43:29.869Z,0.00
2019-04-30T02:44:29.255Z,0.00
2019-04-30T02:45:29.851Z,0.00
2019-04-30T02:46:31.936Z,0.00
2019-04-30T02:47:30.215Z,0.00
2019-04-30T02:48:29.247Z,0.00
2019-04-30T02:49:29.963Z,0.00
2019-04-30T02:50:29.386Z,0.00
2019-04-30T02:51:29.522Z,0.00
2019-04-30T02:52:29.399Z,0.00
2019-04-30T02:53:29.240Z,0.00
2019-04-30T02:54:29.455Z,0.00
2019-04-30T02:55:29.610Z,0.00
2019-04-30T02:56:29.522Z,0.00
2019-04-30T02:57:29.794Z,0.00
2019-04-30T02:58:29.366Z,0.00
2019-04-30T02:59:29.893Z,0.00
2019-04-30T03:00:29.784Z,0.00
2019-04-30T03:01:30.290Z,0.00
2019-04-30T03:02:29.050Z,0.00
2019-04-30T03:03:29.804Z,4.00
2019-04-30T03:04:29.256Z,4.00
2019-04-30T03:05:27.024Z,4.00
2019-04-30T03:06:29.725Z,0.00
2019-04-30T03:07:29.370Z,4.00
2019-04-30T03:08:29.565Z,4.00
2019-04-30T03:09:29.515Z,4.00
2019-04-30T03:10:26.959Z,4.00
2019-04-30T03:11:29.852Z,4.00
2019-04-30T03:12:26.937Z,8.00
2019-04-30T03:13:29.716Z,8.00
2019-04-30T03:14:26.916Z,8.00
2019-04-30T03:15:29.607Z,8.00
2019-04-30T03:16:26.904Z,12.00
2019-04-30T03:17:29.285Z,16.00
2019-04-30T03:18:30.049Z,20.00
2019-04-30T03:19:29.339Z,20.00
2019-04-30T03:20:32.621Z,24.00
2019-04-30T03:21:29.046Z,28.00
2019-04-30T03:22:26.831Z,32.00
2019-04-30T03:23:29.225Z,36.00
2019-04-30T03:24:29.410Z,44.00
2019-04-30T03:25:29.661Z,44.00
2019-04-30T03:26:29.620Z,52.00
2019-04-30T03:27:26.779Z,60.00
2019-04-30T03:28:29.877Z,68.00
2019-04-30T03:29:26.758Z,76.00
2019-04-30T03:30:31.523Z,84.00
2019-04-30T03:31:32.031Z,96.00
2019-04-30T03:32:31.682Z,108.00
2019-04-30T03:33:32.207Z,120.00
2019-04-30T03:34:31.877Z,128.00
2019-04-30T03:35:31.726Z,144.00
2019-04-30T03:36:26.686Z,160.00
2019-04-30T03:37:26.673Z,176.00
2019-04-30T03:38:26.663Z,192.00
2019-04-30T03:39:26.648Z,212.00
2019-04-30T03:40:26.639Z,228.00
2019-04-30T03:41:26.636Z,248.00
2019-04-30T03:42:26.622Z,268.00
2019-04-30T03:43:26.608Z,292.00
2019-04-30T03:44:31.581Z,312.00
2019-04-30T03:45:30.049Z,336.00
2019-04-30T03:46:29.645Z,360.00
2019-04-30T03:47:26.569Z,384.00
2019-04-30T03:48:29.262Z,408.00
2019-04-30T03:49:26.542Z,440.00
2019-04-30T03:50:32.837Z,468.00
2019-04-30T03:51:29.783Z,496.00
2019-04-30T03:52:29.047Z,528.00
2019-04-30T03:53:26.503Z,560.00
2019-04-30T03:54:29.063Z,592.00
2019-04-30T03:55:26.479Z,624.00
2019-04-30T03:56:26.474Z,656.00
2019-04-30T03:57:26.457Z,692.00
2019-04-30T03:58:29.127Z,720.00
2019-04-30T03:59:26.437Z,756.00
2019-04-30T04:00:26.429Z,784.00
2019-04-30T04:01:26.416Z,820.00
2019-04-30T04:02:26.405Z,856.00
2019-04-30T04:03:26.396Z,888.00
2019-04-30T04:04:26.390Z,924.00
2019-04-30T04:05:26.374Z,956.00
2019-04-30T04:06:26.367Z,992.00
2019-04-30T04:07:26.355Z,1024.00
2019-04-30T04:08:26.341Z,1060.00
2019-04-30T04:09:26.333Z,1088.00
2019-04-30T04:10:26.324Z,1128.00
2019-04-30T04:11:26.309Z,1160.00
2019-04-30T04:12:26.300Z,1188.00
2019-04-30T04:13:26.316Z,1228.00
2019-04-30T04:14:26.277Z,1256.00
2019-04-30T04:15:26.271Z,1288.00
2019-04-30T04:16:26.261Z,1320.00
2019-04-30T04:17:26.245Z,1356.00
2019-04-30T04:18:26.238Z,1384.00
2019-04-30T04:19:26.225Z,1420.00
2019-04-30T04:20:26.214Z,1452.00
2019-04-30T04:21:26.210Z,1480.00
2019-04-30T04:22:26.192Z,1512.00
2019-04-30T04:23:26.186Z,1544.00
2019-04-30T04:24:26.171Z,1576.00
2019-04-30T04:25:26.161Z,1608.00
2019-04-30T04:26:26.151Z,1636.00
2019-04-30T04:27:26.149Z,1668.00
2019-04-30T04:28:26.130Z,1696.00
2019-04-30T04:29:26.118Z,1724.00
2019-04-30T04:30:26.110Z,1752.00
2019-04-30T04:31:26.099Z,1788.00
2019-04-30T04:32:26.087Z,1812.00
2019-04-30T04:33:26.090Z,1844.00
2019-04-30T04:34:26.071Z,1868.00
2019-04-30T04:35:26.054Z,1900.00
2019-04-30T04:36:26.045Z,1928.00
2019-04-30T04:37:26.070Z,1956.00
2019-04-30T04:38:26.022Z,1984.00
2019-04-30T04:39:26.017Z,2012.00
2019-04-30T04:40:25.999Z,2044.00
2019-04-30T04:41:25.990Z,2068.00
2019-04-30T04:42:25.978Z,2096.00
2019-04-30T04:43:25.969Z,2120.00
2019-04-30T04:44:25.961Z,2148.00
2019-04-30T04:45:25.951Z,2176.00
2019-04-30T04:46:25.947Z,2200.00
2019-04-30T04:47:25.928Z,2228.00
2019-04-30T04:48:25.915Z,2252.00
2019-04-30T04:49:25.909Z,2276.00
2019-04-30T04:50:25.893Z,2304.00
2019-04-30T04:51:34.370Z,2332.00
2019-04-30T04:52:26.873Z,2368.00
2019-04-30T04:53:25.863Z,2400.00
2019-04-30T04:54:25.854Z,2432.00
2019-04-30T04:55:25.845Z,2472.00
2019-04-30T04:56:25.828Z,2492.00
2019-04-30T04:57:25.824Z,2528.00
2019-04-30T04:58:25.809Z,2560.00
2019-04-30T04:59:25.805Z,2592.00
2019-04-30T05:00:25.792Z,2628.00
2019-04-30T05:01:25.775Z,2660.00
2019-04-30T05:02:25.766Z,2688.00
2019-04-30T05:03:25.755Z,2720.00
2019-04-30T05:04:25.744Z,2752.00
2019-04-30T05:05:25.737Z,2788.00
2019-04-30T05:06:25.723Z,2824.00
2019-04-30T05:07:25.713Z,2856.00
2019-04-30T05:08:25.701Z,2900.00
2019-04-30T05:09:25.691Z,2940.00
2019-04-30T05:10:25.692Z,2972.00
2019-04-30T05:11:25.669Z,3012.00
2019-04-30T05:12:25.658Z,3056.00
2019-04-30T05:13:25.648Z,3100.00
2019-04-30T05:14:25.647Z,3140.00
2019-04-30T05:15:25.627Z,3184.00
2019-04-30T05:16:25.617Z,3220.00
2019-04-30T05:17:25.606Z,3256.00
2019-04-30T05:18:25.596Z,3292.00
2019-04-30T05:19:25.587Z,3324.00
2019-04-30T05:20:25.574Z,3368.00
2019-04-30T05:21:25.563Z,3412.00
2019-04-30T05:22:25.553Z,3448.00
2019-04-30T05:23:25.540Z,3496.00
2019-04-30T05:24:25.531Z,3540.00
2019-04-30T05:25:25.519Z,3564.00
2019-04-30T05:26:25.507Z,3600.00
2019-04-30T05:27:25.498Z,3640.00
2019-04-30T05:28:25.487Z,3692.00
2019-04-30T05:29:25.478Z,3788.00
2019-04-30T05:30:25.466Z,3836.00
2019-04-30T05:31:25.454Z,4124.00
2019-04-30T05:32:25.445Z,4416.00
2019-04-30T05:33:25.433Z,4600.00
2019-04-30T05:34:25.423Z,4612.00
2019-04-30T05:35:25.411Z,4532.00
2019-04-30T05:36:25.401Z,4576.00
2019-04-30T05:37:25.391Z,4552.00
2019-04-30T05:38:25.378Z,4476.00
2019-04-30T05:39:25.370Z,4552.00
2019-04-30T05:40:25.359Z,4492.00
2019-04-30T05:41:25.350Z,4592.00
2019-04-30T05:42:25.337Z,4708.00
2019-04-30T05:43:25.326Z,4924.00
2019-04-30T05:44:25.316Z,5000.00
2019-04-30T05:45:25.305Z,5208.00
2019-04-30T05:46:25.294Z,5188.00
2019-04-30T05:47:25.285Z,5276.00
2019-04-30T05:48:25.275Z,5168.00
2019-04-30T05:49:25.266Z,4948.00
2019-04-30T05:50:25.254Z,4876.00
2019-04-30T05:51:25.244Z,5140.00
2019-04-30T05:52:25.234Z,5108.00
2019-04-30T05:53:25.220Z,5396.00
2019-04-30T05:54:25.214Z,5236.00
2019-04-30T05:55:25.196Z,5556.00
2019-04-30T05:56:25.189Z,5972.00
2019-04-30T05:57:25.177Z,6108.00
2019-04-30T05:58:25.185Z,6484.00
2019-04-30T05:59:25.155Z,6960.00
2019-04-30T06:00:25.144Z,7172.00
2019-04-30T06:01:25.133Z,7412.00
2019-04-30T06:02:25.129Z,7540.00
2019-04-30T06:03:30.160Z,7616.00
2019-04-30T06:04:26.104Z,7896.00
2019-04-30T06:05:25.090Z,8064.00
2019-04-30T06:06:25.080Z,8140.00
2019-04-30T06:07:25.068Z,8220.00
2019-04-30T06:08:25.067Z,8340.00
2019-04-30T06:09:33.238Z,8404.00
2019-04-30T06:10:26.035Z,8548.00
2019-04-30T06:11:25.026Z,8640.00
2019-04-30T06:12:25.016Z,8736.00
2019-04-30T06:13:25.007Z,8844.00
2019-04-30T06:14:24.993Z,8976.00
2019-04-30T06:15:24.984Z,9128.00
2019-04-30T06:16:24.974Z,9272.00
2019-04-30T06:17:24.960Z,9428.00
2019-04-30T06:18:24.950Z,9612.00
2019-04-30T06:19:24.938Z,9788.00
2019-04-30T06:20:24.929Z,9964.00
2019-04-30T06:21:24.922Z,10168.00
2019-04-30T06:22:24.906Z,10384.00
2019-04-30T06:23:24.904Z,10540.00
2019-04-30T06:24:24.884Z,10620.00
2019-04-30T06:25:32.477Z,10700.00
2019-04-30T06:26:25.882Z,10804.00
2019-04-30T06:27:24.873Z,10736.00
2019-04-30T06:28:24.842Z,11588.00
2019-04-30T06:29:24.834Z,18656.00
2019-04-30T06:30:24.818Z,21152.00
2019-04-30T06:31:32.232Z,12384.00
2019-04-30T06:32:25.795Z,10248.00
2019-04-30T06:33:24.790Z,10196.00
2019-04-30T06:34:24.775Z,10192.00
2019-04-30T06:35:24.764Z,10184.00
2019-04-30T06:36:24.754Z,10232.00
2019-04-30T06:37:24.751Z,10284.00
2019-04-30T06:38:24.733Z,10324.00
2019-04-30T06:39:24.729Z,10408.00
2019-04-30T06:40:24.711Z,10492.00
2019-04-30T06:41:24.701Z,10552.00
2019-04-30T06:42:24.691Z,10628.00
2019-04-30T06:43:24.679Z,10680.00
2019-04-30T06:44:34.868Z,10768.00
2019-04-30T06:45:25.656Z,10844.00
2019-04-30T06:46:24.649Z,10896.00
2019-04-30T06:47:32.738Z,10968.00
2019-04-30T06:48:25.624Z,11048.00
2019-04-30T06:49:24.617Z,11120.00
2019-04-30T06:50:24.605Z,11160.00
2019-04-30T06:51:24.592Z,11212.00
2019-04-30T06:52:24.581Z,11240.00
2019-04-30T06:53:24.572Z,11344.00
2019-04-30T06:54:24.561Z,11432.00
2019-04-30T06:55:24.549Z,11512.00
2019-04-30T06:56:24.540Z,11592.00
2019-04-30T06:57:24.528Z,11680.00
2019-04-30T06:58:24.517Z,11744.00
2019-04-30T06:59:24.507Z,11836.00
2019-04-30T07:00:32.749Z,11908.00
2019-04-30T07:01:25.487Z,12000.00
2019-04-30T07:02:24.479Z,12080.00
2019-04-30T07:03:24.466Z,12144.00
2019-04-30T07:04:24.453Z,12240.00
2019-04-30T07:05:24.442Z,12340.00
2019-04-30T07:06:29.688Z,12436.00
2019-04-30T07:07:36.254Z,12540.00
2019-04-30T07:08:36.057Z,12612.00
2019-04-30T07:09:26.663Z,12740.00
2019-04-30T07:10:25.390Z,12776.00
2019-04-30T07:11:24.377Z,12880.00
2019-04-30T07:12:27.805Z,12964.00
2019-04-30T07:13:25.356Z,13024.00
2019-04-30T07:14:24.345Z,13168.00
2019-04-30T07:15:24.337Z,13220.00
2019-04-30T07:16:24.323Z,13284.00
2019-04-30T07:17:24.312Z,13380.00
2019-04-30T07:18:24.302Z,13484.00
2019-04-30T07:19:32.961Z,13588.00
2019-04-30T07:20:25.280Z,13704.00
2019-04-30T07:21:24.270Z,13820.00
2019-04-30T07:22:37.648Z,13928.00
2019-04-30T07:23:25.248Z,14024.00
2019-04-30T07:24:24.308Z,14168.00
2019-04-30T07:25:24.234Z,14324.00
2019-04-30T07:26:24.811Z,14548.00
2019-04-30T07:27:24.436Z,14868.00
2019-04-30T07:28:41.246Z,15440.00
2019-04-30T07:29:25.195Z,16640.00
2019-04-30T07:30:24.173Z,18176.00
2019-04-30T07:31:24.166Z,19584.00
2019-04-30T07:32:24.151Z,22336.00
2019-04-30T07:33:24.142Z,24480.00
2019-04-30T07:34:24.131Z,27552.00
2019-04-30T07:35:24.121Z,30272.00
2019-04-30T07:36:42.467Z,32608.00
2019-04-30T07:37:25.098Z,33856.00
2019-04-30T07:38:24.088Z,37088.00
2019-04-30T07:39:29.255Z,42272.00
2019-04-30T07:40:25.065Z,46176.00
2019-04-30T07:41:24.057Z,49952.00
2019-04-30T07:42:24.044Z,56032.00
2019-04-30T07:43:24.034Z,67744.00
2019-04-30T07:44:35.422Z,72096.00
2019-04-30T07:45:25.662Z,71936.00
2019-04-30T07:46:24.004Z,72352.00
2019-04-30T07:47:24.020Z,73632.00
2019-04-30T07:48:26.508Z,73728.00
2019-04-30T07:49:23.975Z,70336.00
2019-04-30T07:50:24.468Z,71232.00
2019-04-30T07:51:24.725Z,75936.00
2019-04-30T07:52:24.683Z,79200.00
2019-04-30T07:53:23.934Z,80864.00
2019-04-30T07:54:23.919Z,79360.00
2019-04-30T07:55:23.908Z,83200.00
2019-04-30T07:56:28.267Z,80096.00
2019-04-30T07:57:24.885Z,73344.00
2019-04-30T07:58:23.876Z,67520.00
2019-04-30T07:59:23.865Z,70848.00
2019-04-30T08:00:23.855Z,75168.00
2019-04-30T08:01:23.844Z,78112.00
2019-04-30T08:02:24.643Z,78752.00
2019-04-30T08:03:24.068Z,81696.00
2019-04-30T08:04:23.822Z,82912.00
2019-04-30T08:05:23.809Z,82272.00
2019-04-30T08:06:23.857Z,84320.00
2019-04-30T08:07:23.815Z,84512.00
2019-04-30T08:08:25.659Z,84992.00
2019-04-30T08:09:23.762Z,83648.00
2019-04-30T08:10:23.752Z,83296.00
2019-04-30T08:11:26.321Z,81184.00
2019-04-30T08:12:30.347Z,81504.00
2019-04-30T08:13:25.244Z,82368.00
2019-04-30T08:14:24.682Z,83520.00
2019-04-30T08:15:23.701Z,85440.00
2019-04-30T08:16:23.692Z,89440.00
2019-04-30T08:17:23.686Z,90784.00
2019-04-30T08:18:23.672Z,88672.00
2019-04-30T08:19:23.661Z,85504.00
2019-04-30T08:20:23.653Z,85312.00
2019-04-30T08:21:23.640Z,87488.00
2019-04-30T08:22:23.630Z,90368.00
2019-04-30T08:23:34.031Z,93184.00
2019-04-30T08:24:24.612Z,90560.00
2019-04-30T08:25:23.599Z,89632.00
2019-04-30T08:26:23.592Z,88384.00
2019-04-30T08:27:23.581Z,89984.00
2019-04-30T08:28:23.569Z,90112.00
2019-04-30T08:29:23.565Z,90112.00
2019-04-30T08:30:26.742Z,87200.00
2019-04-30T08:31:23.539Z,90816.00
2019-04-30T08:32:23.529Z,88832.00
2019-04-30T08:33:23.521Z,89280.00
2019-04-30T08:34:23.508Z,85312.00
2019-04-30T08:35:23.503Z,88256.00
2019-04-30T08:36:23.491Z,91904.00
2019-04-30T08:37:23.477Z,94112.00
2019-04-30T08:38:23.468Z,95040.00
2019-04-30T08:39:23.458Z,97728.00
2019-04-30T08:40:23.447Z,97824.00
2019-04-30T08:41:23.439Z,95904.00
2019-04-30T08:42:32.759Z,93600.00
2019-04-30T08:43:24.416Z,95584.00
2019-04-30T08:44:23.410Z,101920.00
2019-04-30T08:45:23.399Z,100832.00
2019-04-30T08:46:23.393Z,100448.00
2019-04-30T08:47:23.395Z,92864.00
2019-04-30T08:48:23.368Z,88832.00
2019-04-30T08:49:23.647Z,83744.00
2019-04-30T08:50:23.366Z,83456.00
2019-04-30T08:51:23.350Z,87168.00
2019-04-30T08:52:23.496Z,86624.00
2019-04-30T08:53:29.291Z,90784.00
2019-04-30T08:54:24.312Z,97344.00
2019-04-30T08:55:23.300Z,102112.00
2019-04-30T08:56:23.290Z,105376.00
2019-04-30T08:57:23.279Z,100416.00
2019-04-30T08:58:23.270Z,93152.00
2019-04-30T08:59:23.261Z,93088.00
2019-04-30T09:00:23.251Z,97344.00
2019-04-30T09:01:23.240Z,94688.00
2019-04-30T09:02:23.232Z,96992.00
2019-04-30T09:03:23.223Z,91712.00
2019-04-30T09:04:23.212Z,89152.00
2019-04-30T09:05:23.203Z,89408.00
2019-04-30T09:06:23.198Z,93984.00
2019-04-30T09:07:23.184Z,95904.00
2019-04-30T09:08:23.175Z,97344.00
2019-04-30T09:09:23.175Z,92992.00
2019-04-30T09:10:23.156Z,93088.00
2019-04-30T09:11:30.207Z,97408.00
2019-04-30T09:12:24.135Z,101664.00
2019-04-30T09:13:23.126Z,102784.00
2019-04-30T09:14:23.121Z,101664.00
2019-04-30T09:15:23.109Z,96736.00
2019-04-30T09:16:23.098Z,95808.00
2019-04-30T09:17:23.091Z,90144.00
2019-04-30T09:18:23.078Z,88384.00
2019-04-30T09:19:23.068Z,86336.00
2019-04-30T09:20:23.060Z,85376.00
2019-04-30T09:21:23.050Z,86656.00
2019-04-30T09:22:23.039Z,88032.00
2019-04-30T09:23:23.031Z,92384.00
2019-04-30T09:24:23.028Z,88000.00
2019-04-30T09:25:23.019Z,90784.00
2019-04-30T09:26:23.002Z,86592.00
2019-04-30T09:27:22.991Z,91616.00
2019-04-30T09:28:22.988Z,99104.00
2019-04-30T09:29:22.973Z,103744.00
2019-04-30T09:30:22.967Z,108352.00
2019-04-30T09:31:22.962Z,105408.00
2019-04-30T09:32:22.950Z,101568.00
2019-04-30T09:33:22.935Z,98688.00
2019-04-30T09:34:22.926Z,98976.00
2019-04-30T09:35:22.915Z,102400.00
2019-04-30T09:36:22.905Z,99904.00
2019-04-30T09:37:22.895Z,103968.00
2019-04-30T09:38:22.885Z,102080.00
2019-04-30T09:39:23.247Z,104704.00
2019-04-30T09:40:22.869Z,108224.00
2019-04-30T09:41:22.857Z,107520.00
2019-04-30T09:42:22.847Z,109952.00
2019-04-30T09:43:22.842Z,109824.00
2019-04-30T09:44:22.828Z,110176.00
2019-04-30T09:45:22.823Z,110528.00
2019-04-30T09:46:27.084Z,112672.00
2019-04-30T09:47:22.801Z,113440.00
2019-04-30T09:48:22.790Z,115072.00
2019-04-30T09:49:22.780Z,114688.00
2019-04-30T09:50:22.772Z,112128.00
2019-04-30T09:51:24.641Z,116512.00
2019-04-30T09:52:22.780Z,116032.00
2019-04-30T09:53:22.864Z,112736.00
2019-04-30T09:54:23.087Z,109952.00
2019-04-30T09:55:22.725Z,108064.00
2019-04-30T09:56:22.715Z,108960.00
2019-04-30T09:57:22.717Z,114656.00
2019-04-30T09:58:22.698Z,117280.00
2019-04-30T09:59:22.688Z,114048.00
2019-04-30T10:00:22.678Z,107488.00
2019-04-30T10:01:22.672Z,104576.00
2019-04-30T10:02:22.657Z,105472.00
2019-04-30T10:03:23.453Z,107520.00
2019-04-30T10:04:23.077Z,109696.00
2019-04-30T10:05:22.634Z,111680.00
2019-04-30T10:06:22.621Z,110816.00
2019-04-30T10:07:22.613Z,114240.00
2019-04-30T10:08:22.881Z,110176.00
2019-04-30T10:09:22.593Z,109792.00
2019-04-30T10:10:22.584Z,108448.00
2019-04-30T10:11:22.575Z,110496.00
2019-04-30T10:12:22.567Z,114848.00
2019-04-30T10:13:22.556Z,114880.00
2019-04-30T10:14:22.550Z,112672.00
2019-04-30T10:15:22.537Z,111264.00
2019-04-30T10:16:22.531Z,113792.00
2019-04-30T10:17:22.520Z,111232.00
2019-04-30T10:18:22.510Z,114624.00
2019-04-30T10:19:22.500Z,117408.00
2019-04-30T10:20:22.490Z,115168.00
2019-04-30T10:21:22.481Z,114656.00
2019-04-30T10:22:22.471Z,115136.00
2019-04-30T10:23:22.461Z,113952.00
2019-04-30T10:24:22.452Z,112288.00
2019-04-30T10:25:22.444Z,113408.00
2019-04-30T10:26:22.435Z,111648.00
2019-04-30T10:27:22.425Z,107776.00
2019-04-30T10:28:22.419Z,114144.00
2019-04-30T10:29:22.407Z,113408.00
2019-04-30T10:30:22.397Z,112288.00
2019-04-30T10:31:22.391Z,106080.00
2019-04-30T10:32:22.377Z,105696.00
2019-04-30T10:33:22.370Z,105856.00
2019-04-30T10:34:22.360Z,107712.00
2019-04-30T10:35:22.355Z,113152.00
2019-04-30T10:36:22.345Z,111040.00
2019-04-30T10:37:22.356Z,112256.00
2019-04-30T10:38:22.321Z,108000.00
2019-04-30T10:39:22.329Z,102720.00
2019-04-30T10:40:22.303Z,92800.00
2019-04-30T10:41:22.319Z,97472.00
2019-04-30T10:42:22.284Z,96480.00
2019-04-30T10:43:22.279Z,103616.00
2019-04-30T10:44:22.265Z,107104.00
2019-04-30T10:45:22.258Z,101504.00
2019-04-30T10:46:22.256Z,105984.00
2019-04-30T10:47:22.236Z,110752.00
2019-04-30T10:48:22.232Z,109824.00
2019-04-30T10:49:22.249Z,108032.00
2019-04-30T10:50:22.212Z,106176.00
2019-04-30T10:51:22.203Z,110528.00
2019-04-30T10:52:22.200Z,106528.00
2019-04-30T10:53:22.183Z,108128.00
2019-04-30T10:54:25.732Z,107232.00
2019-04-30T10:55:22.162Z,107232.00
2019-04-30T10:56:22.153Z,105600.00
2019-04-30T10:57:22.146Z,99360.00
2019-04-30T10:58:22.233Z,98816.00
2019-04-30T10:59:22.125Z,100480.00
2019-04-30T11:00:22.117Z,105824.00
2019-04-30T11:01:22.108Z,114400.00
2019-04-30T11:02:22.097Z,109920.00
2019-04-30T11:03:23.084Z,109248.00
2019-04-30T11:04:22.077Z,101312.00
2019-04-30T11:05:22.069Z,103296.00
2019-04-30T11:06:22.060Z,105312.00
2019-04-30T11:07:22.058Z,105760.00
2019-04-30T11:08:22.040Z,104416.00
2019-04-30T11:09:22.040Z,106880.00
2019-04-30T11:10:22.022Z,108064.00
2019-04-30T11:11:22.014Z,113152.00
2019-04-30T11:12:22.004Z,110912.00
2019-04-30T11:13:21.996Z,105952.00
2019-04-30T11:14:21.983Z,101824.00
2019-04-30T11:15:21.976Z,96992.00
2019-04-30T11:16:21.966Z,98176.00
2019-04-30T11:17:22.129Z,100736.00
2019-04-30T11:18:22.190Z,103552.00
2019-04-30T11:19:22.114Z,102496.00
2019-04-30T11:20:22.420Z,106048.00
2019-04-30T11:21:22.104Z,102720.00
2019-04-30T11:22:22.127Z,108640.00
2019-04-30T11:23:22.111Z,110304.00
2019-04-30T11:24:22.089Z,116704.00
2019-04-30T11:25:22.334Z,117024.00
2019-04-30T11:26:22.249Z,112832.00
2019-04-30T11:27:22.570Z,112032.00
2019-04-30T11:28:22.281Z,110112.00
2019-04-30T11:29:23.205Z,109856.00
2019-04-30T11:30:24.310Z,109280.00
2019-04-30T11:31:22.031Z,107616.00
2019-04-30T11:32:22.063Z,104224.00
2019-04-30T11:33:22.010Z,106720.00
2019-04-30T11:34:21.799Z,104288.00
2019-04-30T11:35:21.789Z,109952.00
2019-04-30T11:36:21.779Z,109088.00
2019-04-30T11:37:21.772Z,111520.00
2019-04-30T11:38:21.776Z,114752.00
2019-04-30T11:39:21.752Z,110304.00
2019-04-30T11:40:31.136Z,111008.00
2019-04-30T11:41:30.985Z,110528.00
2019-04-30T11:42:22.724Z,113184.00
2019-04-30T11:43:21.714Z,109920.00
2019-04-30T11:44:30.410Z,104096.00
2019-04-30T11:45:22.692Z,105280.00
2019-04-30T11:46:21.685Z,110112.00
2019-04-30T11:47:21.676Z,108768.00
2019-04-30T11:48:21.666Z,107680.00
2019-04-30T11:49:21.658Z,103424.00
2019-04-30T11:50:21.649Z,101504.00
2019-04-30T11:51:21.639Z,105728.00
2019-04-30T11:52:21.631Z,108320.00
2019-04-30T11:53:27.813Z,107616.00
2019-04-30T11:54:22.609Z,110656.00
2019-04-30T11:55:21.601Z,108416.00
2019-04-30T11:56:21.591Z,109056.00
2019-04-30T11:57:21.581Z,110656.00
2019-04-30T11:58:22.080Z,109536.00
2019-04-30T11:59:21.562Z,110144.00
2019-04-30T12:00:21.549Z,104416.00
2019-04-30T12:01:21.543Z,105152.00
2019-04-30T12:02:21.531Z,106528.00
2019-04-30T12:03:21.526Z,107456.00
2019-04-30T12:04:21.513Z,102784.00
2019-04-30T12:05:21.505Z,98528.00
2019-04-30T12:06:21.491Z,100544.00
2019-04-30T12:07:21.483Z,104448.00
2019-04-30T12:08:21.473Z,105120.00
2019-04-30T12:09:21.465Z,102368.00
2019-04-30T12:10:21.451Z,102720.00